Station: Innisfail Aero  

  Atmospheric Gas Attenuation - ITU Rec 676-11   ----------------- dB/100km -----------------
Date Time Temp RH % AH g/m3 Dew Point Wind Direction Speed kph Gust kph Barometer mB Rainfall Since 9am 24GHz 47GHz 76GHz 122GHz 134GHz 241GHz
08/05 12:30 25.9 80 19.37 22.2 28 41 1015.3 1 41.6 40.4 78.1 206.7 228.1 792.3
08/05 12:20 25.5 80 18.94 21.8 33 37 1015.4 1 40.8 39.8 76.5 202.4 222.7 773.5
08/05 12:10 25.2 84 19.55 22.3 24 30 1015.5 1 42.1 41.1 79.7 211.0 233.1 809.6
08/05 12:00 24.5 84 18.8 21.6 22 32 1015.6 1 40.6 40.0 76.9 203.4 223.5 776.4
08/05 11:50 26.1 82 20.08 22.8 24 28 1015.8 0.6 43.1 41.7 81.3 215.2 238.5 828.8
08/05 11:40 25 84 19.34 22.1 24 33 1016 0.6 41.7 40.8 79.0 208.9 230.5 800.6
08/05 11:30 24.8 84 19.12 21.9 22 28 1016.1 0.6 41.2 40.5 78.1 206.7 227.7 790.8
08/05 11:20 25 84 19.34 22.1 26 28 1016.1 0.6 41.7 40.8 79.0 209.0 230.5 800.6
08/05 11:10 25.5 84 19.89 22.6 22 28 1016.2 0.6 42.8 41.6 81.1 214.6 237.5 825.2
08/05 11:00 25.8 90 21.67 24 22 30 1016.4 0.6 46.5 45.0 89.5 237.0 265.1 920.9
08/05 10:50 24.9 85 19.46 22.2 28 30 1016.4 0.6 41.9 41.1 79.7 210.8 232.7 808.4
08/05 10:40 27 87 22.39 24.6 22 26 1016.5 0.6 47.9 45.8 91.7 242.7 272.5 946.8
08/05 10:30 25.5 83 19.65 22.4 22 30 1016.7 0.6 42.3 41.2 80.0 211.6 233.9 812.4
08/05 10:20 25.9 85 20.58 23.2 19 22 1016.7 0.6 44.2 42.8 84.0 222.4 247.2 858.9
08/05 10:10 25.9 85 20.58 23.2 20 24 1016.6 0.6 44.2 42.8 84.0 222.4 247.2 858.8
08/05 10:00 25.2 86 20.02 22.7 15 19 1016.6 0.6 43.1 42.1 82.1 217.2 240.6 835.9
08/05 09:50 24.4 91 20.25 22.8 15 17 1016.7 0.6 43.7 42.9 84.1 222.5 247.0 857.7
08/05 09:40 23.7 93 19.89 22.5 15 17 1016.7 0.6 43.0 42.6 83.1 219.9 243.5 845.5
08/05 09:30 23.3 94 19.65 22.3 11 15 1016.7 0.6 42.5 42.3 82.4 217.9 240.9 836.6
08/05 09:20 23 95 19.52 22.2 7 9 1016.7 0.6 42.3 42.2 82.1 217.0 239.8 832.6
08/05 09:10 22.7 95 19.19 21.9 7 9 1016.5 0.6 41.6 41.7 80.7 213.5 235.4 817.4
08/05 09:00 22.6 94 18.88 21.6 2 7 1016.5 0.6 40.9 41.1 79.3 209.8 230.8 801.2
08/05 08:50 22.4 96 19.06 21.7 0 0 1016.5 0.2 41.3 41.6 80.4 212.7 234.3 813.3
08/05 08:40 22.1 95 18.54 21.3 0 0 1016.4 0.2 40.3 40.7 78.2 206.7 226.9 787.5
08/05 08:30 22 97 18.82 21.5 2 6 1016.2 0.2 40.9 41.3 79.6 210.6 231.6 804.1
08/05 08:20 21.7 98 18.69 21.4 0 0 1016 0.2 40.6 41.2 79.3 209.7 230.4 799.9
08/05 08:10 21.7 99 18.88 21.5 0 0 1015.9 0.2 41.0 41.5 80.2 212.2 233.5 810.5
08/05 08:00 21.4 99 18.56 21.2 0 0 1015.8 0.2 40.4 41.1 79.0 208.8 229.2 795.7
08/05 07:50 21.3 99 18.45 21.1 0 0 1015.7 0.2 40.2 40.9 78.5 207.6 227.8 790.6
08/05 07:40 21.2 99 18.35 21 6 7 1015.6 0.2 40.0 40.7 78.1 206.6 226.4 786.0
08/05 07:30 20.7 99 17.82 20.5 0 0 1015.5 0 38.9 39.9 76.0 201.0 219.4 761.6
08/05 07:20 20.7 99 17.82 20.5 0 0 1015.3 0 38.9 39.9 76.0 201.0 219.4 761.5
08/05 07:10 20.5 99 17.61 20.3 0 0 1015.3 0 38.4 39.6 75.2 198.8 216.7 751.8
08/05 07:00 20.3 99 17.41 20.1 2 7 1015.2 0 38.0 39.3 74.4 196.7 214.0 742.7
08/05 06:50 20.1 99 17.21 19.9 6 7 1015.1 0 37.6 39.0 73.6 194.6 211.4 733.6
08/05 06:40 19.6 99 16.71 19.4 2 7 1015 0 36.6 38.3 71.7 189.5 204.9 710.9
08/05 06:30 19.3 99 16.42 19.1 0 0 1014.8 0 36.0 37.8 70.6 186.5 201.1 697.7
08/05 06:20 19.3 99 16.42 19.1 0 4 1014.8 0 36.0 37.8 70.6 186.5 201.1 697.7
08/05 06:10 19 99 16.13 18.8 0 0 1014.8 0 35.4 37.4 69.5 183.5 197.4 684.7
08/05 06:00 19.1 99 16.23 18.9 0 0 1014.6 0 35.6 37.5 69.8 184.5 198.7 689.1
08/05 05:50 18.8 99 15.94 18.6 0 0 1014.5 0 35.0 37.1 68.7 181.5 194.9 676.0
08/05 05:40 18.6 99 15.76 18.4 0 0 1014.4 0 34.6 36.9 68.0 179.7 192.6 668.0
08/05 05:30 18.4 99 15.57 18.2 6 7 1014.4 0 34.2 36.6 67.3 177.8 190.2 659.5
08/05 05:20 18.5 98 15.5 18.2 7 7 1014.2 0 34.1 36.4 66.9 176.6 188.8 654.7
08/05 05:10 18.6 98 15.6 18.3 0 0 1014.1 0 34.3 36.5 67.3 177.6 190.1 659.2
08/05 05:00 18.7 99 15.85 18.5 0 0 1014.1 0 34.8 37.0 68.3 180.6 193.7 671.8
08/05 04:50 18.8 98 15.78 18.5 0 0 1014.1 0 34.7 36.8 67.9 179.4 192.4 667.2
08/05 04:40 18.9 99 16.04 18.7 0 0 1014.1 0 35.2 37.3 69.1 182.5 196.2 680.3
08/05 04:30 18.9 99 16.04 18.7 0 0 1014 0 35.2 37.2 69.1 182.5 196.2 680.3
08/05 04:20 18.8 98 15.78 18.5 0 0 1013.9 0 34.7 36.8 67.9 179.4 192.4 667.1
08/05 04:10 18.7 98 15.69 18.4 0 0 1013.9 0 34.5 36.7 67.6 178.5 191.2 663.1
08/05 04:00 18.8 98 15.78 18.5 0 0 1013.8 0 34.7 36.8 67.9 179.4 192.3 667.0
08/05 03:50 18.9 98 15.88 18.6 0 0 1013.7 0 34.9 36.9 68.3 180.4 193.6 671.5
08/05 03:40 18.8 98 15.78 18.5 0 0 1013.7 0 34.7 36.8 67.9 179.4 192.3 667.0
08/05 03:30 18.8 98 15.78 18.5 0 0 1013.7 0 34.7 36.8 67.9 179.4 192.3 667.0
08/05 03:20 19.1 98 16.06 18.8 0 0 1013.8 0 35.2 37.2 69.0 182.2 195.9 679.5
08/05 03:10 19.3 98 16.25 19 0 0 1013.8 0 35.6 37.5 69.7 184.2 198.3 688.0
08/05 03:00 19.3 98 16.25 19 0 0 1013.8 0 35.6 37.5 69.7 184.2 198.3 688.0
08/05 02:50 19.2 98 16.16 18.9 0 0 1013.9 0 35.4 37.3 69.4 183.3 197.2 684.0
08/05 02:40 19.4 98 16.35 19.1 0 0 1014 0 35.8 37.6 70.1 185.2 199.7 692.6
08/05 02:30 19.6 98 16.54 19.3 0 0 1014 0 36.2 37.9 70.8 187.1 202.1 701.1
08/05 02:20 19.5 98 16.45 19.2 0 0 1014 0 36.0 37.8 70.5 186.2 201.0 697.1
08/05 02:10 19.4 97 16.18 18.9 0 0 1014.1 0 35.5 37.3 69.3 183.1 197.0 683.4
08/05 02:00 19.7 97 16.47 19.2 0 0 1014.2 0 36.1 37.7 70.4 186.0 200.8 696.4
08/05 01:50 19.8 97 16.57 19.3 0 0 1014.1 0 36.3 37.9 70.8 187.0 202.0 700.9
08/05 01:40 19.9 97 16.66 19.4 0 0 1014.3 0 36.5 38.0 71.1 188.0 203.2 705.0
08/05 01:30 20 97 16.76 19.5 0 0 1014.3 0 36.7 38.1 71.5 189.0 204.5 709.5
08/05 01:20 20 97 16.76 19.5 0 2 1014.4 0 36.7 38.1 71.5 189.0 204.5 709.5
08/05 01:10 20.1 97 16.86 19.6 6 6 1014.5 0 36.9 38.3 71.9 190.0 205.8 714.1
08/05 01:00 20 96 16.59 19.3 4 9 1014.7 0 36.3 37.8 70.7 186.9 201.9 700.4
08/05 00:50 20.3 96 16.88 19.6 0 0 1014.7 0 36.9 38.3 71.8 189.8 205.6 713.4
08/05 00:40 20.4 96 16.98 19.7 7 7 1014.6 0 37.1 38.4 72.2 190.8 206.9 717.8
08/05 00:30 20.5 95 16.9 19.7 9 11 1014.6 0 36.9 38.2 71.7 189.6 205.3 712.5
08/05 00:20 20.6 95 17 19.8 9 11 1014.6 0 37.1 38.3 72.1 190.6 206.6 717.0
08/05 00:10 20.8 95 17.2 20 7 9 1014.7 0 37.5 38.6 72.9 192.6 209.2 726.0
08/05 00:00 20.8 95 17.2 20 9 11 1014.8 0 37.5 38.6 72.9 192.7 209.2 726.1
07/05 23:50 20.9 95 17.3 20.1 7 9 1014.8 0 37.7 38.8 73.3 193.7 210.5 730.6
07/05 23:40 20.9 95 17.3 20.1 9 11 1014.9 0 37.7 38.8 73.3 193.7 210.5 730.6
07/05 23:30 21 95 17.4 20.2 9 13 1015 0 37.9 38.9 73.7 194.7 211.8 735.2
07/05 23:20 21.2 95 17.6 20.4 11 13 1015 0 38.3 39.2 74.4 196.8 214.4 744.1
07/05 23:10 21.1 96 17.69 20.4 11 13 1015 0 38.5 39.5 75.0 198.2 216.1 750.1
07/05 23:00 20.9 96 17.48 20.2 7 11 1015 0 38.1 39.1 74.1 196.0 213.4 740.5
07/05 22:50 21 96 17.58 20.3 7 7 1015.1 0 38.3 39.3 74.5 197.1 214.7 745.1
07/05 22:40 20.9 96 17.48 20.2 2 6 1015.3 0 38.1 39.2 74.2 196.1 213.4 740.7
07/05 22:30 21.1 96 17.69 20.4 6 9 1015.4 0 38.5 39.5 75.0 198.3 216.2 750.3
07/05 22:20 21.2 96 17.79 20.5 7 9 1015.4 0 38.8 39.6 75.4 199.3 217.5 754.8
07/05 22:10 21.3 96 17.89 20.6 7 9 1015.4 0 39.0 39.8 75.8 200.3 218.8 759.3
07/05 22:00 21.3 95 17.71 20.5 7 9 1015.5 0 38.6 39.4 74.9 198.0 215.9 749.4
07/05 21:50 21.5 95 17.91 20.7 7 7 1015.5 0 39.0 39.7 75.7 200.0 218.5 758.4
07/05 21:40 21.7 95 18.12 20.9 9 11 1015.5 0 39.4 40.0 76.5 202.2 221.2 768.0
07/05 21:30 21.8 96 18.42 21.1 9 11 1015.6 0 40.0 40.6 77.8 205.9 225.7 783.6
07/05 21:20 21.8 96 18.42 21.1 9 11 1015.6 0 40.0 40.6 77.8 205.9 225.7 783.6
07/05 21:10 21.6 96 18.21 20.9 7 9 1015.7 0 39.6 40.3 77.0 203.7 223.0 774.1
07/05 21:00 21.7 94 17.93 20.7 9 11 1015.6 0 39.0 39.7 75.6 199.8 218.3 757.6
07/05 20:50 21.9 94 18.14 20.9 9 9 1015.5 0 39.4 40.0 76.4 201.9 221.0 767.0
07/05 20:40 22.2 94 18.45 21.2 9 9 1015.5 0 40.1 40.4 77.6 205.1 225.0 781.0
07/05 20:30 22.3 94 18.56 21.3 9 11 1015.4 0 40.3 40.6 78.0 206.3 226.4 786.0
07/05 20:20 22.3 94 18.56 21.3 9 9 1015.4 0 40.3 40.6 78.0 206.3 226.4 786.0
07/05 20:10 22.5 93 18.57 21.3 9 9 1015.3 0 40.3 40.5 77.8 205.8 225.9 784.4
07/05 20:00 22.7 93 18.79 21.5 9 13 1015.2 0 40.7 40.8 78.7 208.1 228.8 794.4

Last Refresh: 08-May-2026 12:08:00

Bureau of Meteorology